This is the latest recevied weather packets stored in our database for station/object RK6MF-10. If no packets are shown the sender has not sent any weather packets the latest 10 day(s).
| Time | Temp. | Humidity | Pressure | Rain* | Wind** | Luminosity | Snow |
|---|---|---|---|---|---|---|---|
| 1777650992 | 7.78° C | 89% | 1014.2 hPa | - | - | - | - |
| 1777650094 | 8.33° C | 84% | 1014 hPa | - | - | - | - |
| 1777649194 | 8.33° C | 79% | 1013.9 hPa | - | - | - | - |
| 1777648294 | 8.33° C | 75% | 1013.9 hPa | - | - | - | - |
| 1777647394 | 8.89° C | 74% | 1013.7 hPa | - | - | - | - |
| 1777646494 | 8.89° C | 71% | 1013.7 hPa | - | - | - | - |
| 1777645594 | 9.44° C | 69% | 1013.7 hPa | - | - | - | - |
| 1777644693 | 9.44° C | 67% | 1013.6 hPa | - | - | - | - |
| 1777643793 | 10° C | 66% | 1013.5 hPa | - | - | - | - |
| 1777641993 | 10° C | 68% | 1013.6 hPa | - | - | - | - |
| 1777641093 | 9.44° C | 69% | 1013.6 hPa | - | - | - | - |
| 1777640193 | 9.44° C | 67% | 1013.7 hPa | - | - | - | - |
| 1777638393 | 9.44° C | 68% | 1013.8 hPa | - | - | - | - |
| 1777637493 | 9.44° C | 67% | 1013.8 hPa | - | - | - | - |
| 1777636593 | 9.44° C | 67% | 1013.8 hPa | - | - | - | - |
| 1777635692 | 10° C | 67% | 1013.8 hPa | - | - | - | - |
| 1777634792 | 10° C | 67% | 1013.7 hPa | - | - | - | - |
| 1777633892 | 10.56° C | 65% | 1013.7 hPa | - | - | - | - |
| 1777632992 | 11.67° C | 55% | 1013.6 hPa | - | - | - | - |
| 1777632092 | 13.89° C | 41% | 1013.4 hPa | - | - | - | - |
| 1777631192 | 13.89° C | 41% | 1013.5 hPa | - | - | - | - |
| 1777630291 | 13.89° C | 42% | 1013.4 hPa | - | - | - | - |
| 1777629391 | 13.89° C | 45% | 1013.4 hPa | - | - | - | - |
| 1777627593 | 12.78° C | 48% | 1013.7 hPa | - | - | - | - |
| 1777626693 | 12.22° C | 48% | 1013.8 hPa | - | - | - | - |
* Rain since midnight (hover to see other rain measurements)
** Current wind speed in m/s (hover to see current wind gust speed)